createdAt,value
2019-03-27T00:01:59.109Z,30.10
2019-03-27T00:04:28.666Z,22.62
2019-03-27T00:06:57.814Z,21.27
2019-03-27T00:09:27.142Z,24.57
2019-03-27T00:11:56.729Z,19.60
2019-03-27T00:14:26.052Z,28.12
2019-03-27T00:16:55.127Z,20.37
2019-03-27T00:19:24.219Z,28.10
2019-03-27T00:21:53.315Z,29.72
2019-03-27T00:24:22.398Z,24.72
2019-03-27T00:26:51.739Z,25.95
2019-03-27T00:29:20.794Z,21.40
2019-03-27T00:31:49.906Z,23.65
2019-03-27T00:34:19.451Z,27.45
2019-03-27T00:36:48.862Z,25.70
2019-03-27T00:39:18.074Z,28.67
2019-03-27T00:41:47.219Z,22.45
2019-03-27T00:44:16.534Z,22.05
2019-03-27T00:46:45.863Z,27.13
2019-03-27T00:49:15.000Z,28.17
2019-03-27T00:51:44.097Z,25.25
2019-03-27T00:54:13.190Z,24.80
2019-03-27T00:56:42.301Z,20.10
2019-03-27T00:59:11.386Z,28.30
2019-03-27T01:01:40.807Z,24.80
2019-03-27T01:04:10.114Z,27.42
2019-03-27T01:06:39.179Z,28.42
2019-03-27T01:09:08.259Z,24.18
2019-03-27T01:11:37.835Z,25.40
2019-03-27T01:14:07.186Z,35.68
2019-03-27T01:16:36.490Z,28.52
2019-03-27T01:19:05.649Z,24.60
2019-03-27T01:21:34.979Z,28.45
2019-03-27T01:24:04.294Z,29.23
2019-03-27T01:26:33.930Z,26.30
2019-03-27T01:29:03.087Z,26.40
2019-03-27T01:31:32.378Z,23.15
2019-03-27T01:34:01.695Z,28.62
2019-03-27T01:36:30.762Z,22.82
2019-03-27T01:39:00.083Z,29.15
2019-03-27T01:41:29.142Z,22.25
2019-03-27T01:43:58.254Z,28.90
2019-03-27T01:46:27.347Z,24.60
2019-03-27T01:48:56.680Z,26.40
2019-03-27T01:51:25.734Z,27.00
2019-03-27T01:53:54.833Z,24.45
2019-03-27T01:56:24.189Z,28.12
2019-03-27T01:58:53.726Z,37.15
2019-03-27T02:01:22.830Z,29.48
2019-03-27T02:03:52.177Z,32.85
2019-03-27T02:06:21.265Z,29.12
2019-03-27T02:08:50.559Z,27.05
2019-03-27T02:11:19.610Z,28.60
2019-03-27T02:13:48.730Z,32.48
2019-03-27T02:16:17.827Z,29.20
2019-03-27T02:18:47.170Z,30.82
2019-03-27T02:21:16.434Z,27.80
2019-03-27T02:23:45.519Z,27.75
2019-03-27T02:26:14.623Z,26.62
2019-03-27T02:28:43.931Z,29.48
2019-03-27T02:31:13.495Z,25.50
2019-03-27T02:33:42.851Z,24.55
2019-03-27T02:36:12.165Z,26.75
2019-03-27T02:38:41.675Z,25.02
2019-03-27T02:41:10.970Z,22.87
2019-03-27T02:43:40.331Z,27.13
2019-03-27T02:46:23.684Z,28.92
2019-03-27T02:48:40.511Z,27.07
2019-03-27T02:51:09.573Z,23.70
2019-03-27T02:53:38.905Z,22.62
2019-03-27T02:56:08.457Z,22.90
2019-03-27T02:58:37.546Z,21.12
2019-03-27T03:01:06.663Z,21.93
2019-03-27T03:03:35.967Z,25.05
2019-03-27T03:06:05.075Z,27.02
2019-03-27T03:08:34.413Z,21.15
2019-03-27T03:11:03.679Z,28.80
2019-03-27T03:13:32.751Z,28.00
2019-03-27T03:16:02.083Z,26.55
2019-03-27T03:18:31.398Z,24.30
2019-03-27T03:21:00.699Z,25.05
2019-03-27T03:23:29.741Z,28.60
2019-03-27T03:25:58.919Z,32.65
2019-03-27T03:28:28.038Z,27.13
2019-03-27T03:30:57.136Z,28.32
2019-03-27T03:33:26.244Z,26.40
2019-03-27T03:35:55.784Z,23.65
2019-03-27T03:38:25.096Z,25.80
2019-03-27T03:40:54.141Z,24.35
2019-03-27T03:43:23.238Z,27.15
2019-03-27T03:45:52.559Z,28.80
2019-03-27T03:48:21.900Z,27.67
2019-03-27T03:50:51.296Z,22.02
2019-03-27T03:53:20.433Z,19.65
2019-03-27T03:55:49.531Z,26.82
2019-03-27T03:58:18.872Z,22.87
2019-03-27T04:00:47.923Z,35.10
2019-03-27T04:03:17.266Z,28.00
2019-03-27T04:05:46.596Z,25.95
2019-03-27T04:08:15.743Z,25.48
2019-03-27T04:10:45.145Z,23.10
2019-03-27T04:13:14.595Z,25.00
2019-03-27T04:15:43.802Z,27.37
2019-03-27T04:18:12.947Z,29.25
2019-03-27T04:20:42.019Z,29.25
2019-03-27T04:23:11.347Z,29.32
2019-03-27T04:26:06.972Z,23.87
2019-03-27T04:28:11.526Z,25.57
2019-03-27T04:30:40.899Z,25.90
2019-03-27T04:33:10.204Z,25.02
2019-03-27T04:35:39.274Z,34.40
2019-03-27T04:38:08.830Z,24.43
2019-03-27T04:40:38.206Z,24.25
2019-03-27T04:43:07.847Z,26.05
2019-03-27T04:45:36.974Z,27.10
2019-03-27T04:48:06.098Z,27.25
2019-03-27T04:50:35.411Z,26.87
2019-03-27T04:53:04.502Z,27.50
2019-03-27T04:55:34.158Z,26.50
2019-03-27T04:58:03.873Z,24.52
2019-03-27T05:00:33.294Z,26.00
2019-03-27T05:03:02.699Z,24.30
2019-03-27T05:05:31.786Z,26.55
2019-03-27T05:08:01.184Z,18.20
2019-03-27T05:10:30.752Z,30.75
2019-03-27T05:12:59.790Z,29.42
2019-03-27T05:15:29.207Z,24.92
2019-03-27T05:17:58.298Z,22.40
2019-03-27T05:20:28.825Z,26.77
2019-03-27T05:22:58.020Z,21.07
2019-03-27T05:25:27.382Z,24.30
2019-03-27T05:27:56.647Z,24.70
2019-03-27T05:30:28.750Z,26.90
2019-03-27T05:32:57.961Z,25.30
2019-03-27T05:35:27.098Z,23.87
2019-03-27T05:37:56.267Z,31.75
2019-03-27T05:40:25.394Z,20.92
2019-03-27T05:43:00.868Z,27.55
2019-03-27T05:45:26.159Z,26.42
2019-03-27T05:47:59.766Z,26.62
2019-03-27T05:50:26.281Z,27.75
2019-03-27T05:52:55.842Z,24.52
2019-03-27T05:55:26.614Z,22.87
2019-03-27T05:57:56.506Z,31.87
2019-03-27T06:00:25.951Z,25.20
2019-03-27T06:02:55.029Z,26.90
2019-03-27T06:05:24.134Z,24.65
2019-03-27T06:07:53.522Z,26.65
2019-03-27T06:10:22.554Z,29.12
2019-03-27T06:12:51.606Z,26.33
2019-03-27T06:15:20.722Z,24.90
2019-03-27T06:17:49.811Z,27.00
2019-03-27T06:20:19.247Z,27.02
2019-03-27T06:22:48.302Z,29.60
2019-03-27T06:25:17.414Z,28.98
2019-03-27T06:27:46.500Z,27.27
2019-03-27T06:30:15.775Z,30.25
2019-03-27T06:32:44.890Z,33.18
2019-03-27T06:35:14.003Z,30.25
2019-03-27T06:37:43.395Z,25.88
2019-03-27T06:40:12.560Z,27.30
2019-03-27T06:42:41.683Z,30.50
2019-03-27T06:45:10.796Z,28.15
2019-03-27T06:47:40.129Z,29.70
2019-03-27T06:50:09.190Z,28.67
2019-03-27T06:52:38.270Z,25.65
2019-03-27T06:55:08.499Z,30.97
2019-03-27T06:57:37.592Z,26.33
2019-03-27T07:00:07.831Z,32.70
2019-03-27T07:02:37.371Z,30.72
2019-03-27T07:05:07.026Z,35.73
2019-03-27T07:07:36.355Z,36.00
2019-03-27T07:10:05.738Z,38.88
2019-03-27T07:12:34.778Z,35.90
2019-03-27T07:15:04.160Z,36.85
2019-03-27T07:17:33.544Z,34.53
2019-03-27T07:20:02.640Z,15.18
2019-03-27T07:22:31.722Z,20.80
2019-03-27T07:25:01.115Z,22.65
2019-03-27T07:27:30.230Z,27.95
2019-03-27T07:29:59.851Z,29.65
2019-03-27T07:32:28.938Z,28.25
2019-03-27T07:34:58.267Z,33.60
2019-03-27T07:37:27.330Z,29.12
2019-03-27T07:39:56.891Z,38.50
2019-03-27T07:42:28.744Z,39.25
2019-03-27T07:44:56.866Z,44.23
2019-03-27T07:47:25.984Z,38.65
2019-03-27T07:49:55.563Z,42.70
2019-03-27T07:52:24.674Z,47.78
2019-03-27T07:54:53.762Z,40.15
2019-03-27T07:57:23.090Z,41.65
2019-03-27T07:59:52.627Z,44.63
2019-03-27T08:02:22.035Z,40.67
2019-03-27T08:04:51.163Z,42.80
2019-03-27T08:07:26.693Z,42.62
2019-03-27T08:09:51.095Z,47.08
2019-03-27T08:12:20.715Z,45.48
2019-03-27T08:14:49.808Z,41.30
2019-03-27T08:17:19.134Z,41.20
2019-03-27T08:19:48.426Z,41.08
2019-03-27T08:22:17.510Z,43.20
2019-03-27T08:24:46.918Z,45.75
2019-03-27T08:27:16.026Z,40.45
2019-03-27T08:29:45.099Z,38.05
2019-03-27T08:32:14.203Z,34.60
2019-03-27T08:34:43.281Z,42.62
2019-03-27T08:37:12.706Z,42.35
2019-03-27T08:39:42.299Z,35.48
2019-03-27T08:42:11.630Z,33.30
2019-03-27T08:44:40.705Z,36.45
2019-03-27T08:47:09.820Z,29.70
2019-03-27T08:49:38.880Z,29.72
2019-03-27T08:52:07.984Z,34.75
2019-03-27T08:54:37.091Z,28.50
2019-03-27T08:57:06.496Z,30.05
2019-03-27T08:59:35.582Z,30.68
2019-03-27T09:02:04.675Z,27.40
2019-03-27T09:04:33.774Z,23.35
2019-03-27T09:07:02.866Z,20.50
2019-03-27T09:09:31.971Z,25.00
2019-03-27T09:12:03.828Z,26.15
2019-03-27T09:14:33.118Z,24.57
2019-03-27T09:17:02.712Z,30.40
2019-03-27T09:19:35.973Z,22.35
2019-03-27T09:22:03.002Z,32.85
2019-03-27T09:24:32.311Z,24.15
2019-03-27T09:27:01.459Z,31.02
2019-03-27T09:29:31.103Z,22.55
2019-03-27T09:32:01.428Z,30.68
2019-03-27T09:34:30.522Z,19.10
2019-03-27T09:36:59.590Z,22.42
2019-03-27T09:39:28.699Z,20.32
2019-03-27T09:41:57.787Z,22.27
2019-03-27T09:44:27.404Z,20.40
2019-03-27T09:46:56.744Z,21.48
2019-03-27T09:49:26.058Z,18.30
2019-03-27T09:51:56.114Z,17.85
2019-03-27T09:54:25.214Z,19.55
2019-03-27T09:56:54.537Z,17.07
2019-03-27T09:59:23.887Z,21.57
2019-03-27T10:01:53.935Z,19.67
2019-03-27T10:04:23.040Z,21.90
2019-03-27T10:06:52.122Z,17.45
2019-03-27T10:09:21.222Z,16.67
2019-03-27T10:11:50.623Z,20.23
2019-03-27T10:14:19.666Z,15.95
2019-03-27T10:16:48.987Z,21.97
2019-03-27T10:19:18.373Z,17.90
2019-03-27T10:21:47.406Z,17.40
2019-03-27T10:24:16.522Z,17.65
2019-03-27T10:26:46.174Z,17.32
2019-03-27T10:29:15.474Z,18.48
2019-03-27T10:31:44.518Z,23.60
2019-03-27T10:34:13.934Z,20.02
2019-03-27T10:36:43.016Z,15.75
2019-03-27T10:39:12.130Z,12.78
2019-03-27T10:41:41.458Z,18.77
2019-03-27T10:44:10.755Z,18.52
2019-03-27T10:46:40.276Z,15.58
2019-03-27T10:49:09.336Z,16.40
2019-03-27T10:51:38.933Z,16.75
2019-03-27T10:54:08.035Z,10.28
2019-03-27T10:56:37.378Z,15.60
2019-03-27T10:59:06.509Z,16.27
2019-03-27T11:01:35.631Z,15.15
2019-03-27T11:04:04.706Z,18.98
2019-03-27T11:06:34.051Z,16.73
2019-03-27T11:09:04.779Z,11.03
2019-03-27T11:11:34.096Z,18.02
2019-03-27T11:14:03.146Z,14.13
2019-03-27T11:16:32.251Z,14.18
2019-03-27T11:19:01.350Z,16.60
2019-03-27T11:21:30.658Z,15.38
2019-03-27T11:23:59.991Z,16.85
2019-03-27T11:26:29.134Z,16.35
2019-03-27T11:28:58.400Z,15.10
2019-03-27T11:31:27.543Z,17.12
2019-03-27T11:33:57.148Z,20.68
2019-03-27T11:36:26.467Z,11.15
2019-03-27T11:38:55.532Z,13.58
2019-03-27T11:41:24.640Z,10.95
2019-03-27T11:43:55.114Z,10.08
2019-03-27T11:46:24.750Z,10.58
2019-03-27T11:48:53.879Z,12.37
2019-03-27T11:51:23.195Z,15.20
2019-03-27T11:53:52.564Z,11.03
2019-03-27T11:56:21.934Z,14.13
2019-03-27T11:58:51.548Z,13.25
2019-03-27T12:01:20.684Z,11.65
2019-03-27T12:03:49.765Z,7.85
2019-03-27T12:06:18.872Z,14.53
2019-03-27T12:08:50.689Z,13.13
2019-03-27T12:11:19.024Z,11.35
2019-03-27T12:13:48.359Z,13.38
2019-03-27T12:16:17.386Z,18.85
2019-03-27T12:18:46.514Z,12.30
2019-03-27T12:21:15.579Z,10.08
2019-03-27T12:23:44.926Z,10.75
2019-03-27T12:26:13.994Z,6.87
2019-03-27T12:28:43.638Z,11.75
2019-03-27T12:31:12.694Z,13.78
2019-03-27T12:33:41.795Z,14.53
2019-03-27T12:36:11.142Z,10.88
2019-03-27T12:38:40.526Z,10.65
2019-03-27T12:41:09.855Z,11.73
2019-03-27T12:43:39.003Z,12.13
2019-03-27T12:46:08.078Z,10.98
2019-03-27T12:48:37.458Z,10.70
2019-03-27T12:51:12.737Z,11.22
2019-03-27T12:53:37.902Z,10.68
2019-03-27T12:56:07.030Z,13.00
2019-03-27T12:58:36.136Z,8.20
2019-03-27T13:01:05.215Z,11.88
2019-03-27T13:03:34.554Z,15.72
2019-03-27T13:06:03.624Z,12.73
2019-03-27T13:08:32.718Z,6.60
2019-03-27T13:11:01.998Z,10.20
2019-03-27T13:13:31.291Z,8.53
2019-03-27T13:16:00.334Z,8.68
2019-03-27T13:18:29.447Z,9.60
2019-03-27T13:20:58.555Z,16.23
2019-03-27T13:23:28.182Z,11.68
2019-03-27T13:25:57.234Z,12.23
2019-03-27T13:28:26.339Z,9.33
2019-03-27T13:30:55.659Z,9.85
2019-03-27T13:33:25.002Z,8.88
2019-03-27T13:35:54.374Z,8.60
2019-03-27T13:38:23.670Z,13.83
2019-03-27T13:40:52.744Z,13.68
2019-03-27T13:43:22.086Z,10.38
2019-03-27T13:45:51.372Z,9.40
2019-03-27T13:48:20.697Z,9.53
2019-03-27T13:50:49.726Z,12.25
2019-03-27T13:53:19.131Z,11.03
2019-03-27T13:55:48.811Z,11.40
2019-03-27T13:58:18.316Z,8.03
2019-03-27T14:00:47.454Z,11.30
2019-03-27T14:03:16.603Z,9.93
2019-03-27T14:05:45.866Z,10.75
2019-03-27T14:08:14.950Z,8.08
2019-03-27T14:10:44.047Z,12.58
2019-03-27T14:13:13.099Z,8.38
2019-03-27T14:15:42.244Z,11.48
2019-03-27T14:18:11.319Z,8.03
2019-03-27T14:20:40.438Z,11.48
2019-03-27T14:23:09.519Z,11.88
2019-03-27T14:25:38.619Z,7.05
2019-03-27T14:28:08.033Z,4.22
2019-03-27T14:30:53.534Z,7.55
2019-03-27T14:33:22.583Z,8.55
2019-03-27T14:35:51.702Z,12.70
2019-03-27T14:38:20.778Z,8.25
2019-03-27T14:40:50.355Z,6.60
2019-03-27T14:43:19.487Z,6.97
2019-03-27T14:45:48.698Z,5.65
2019-03-27T14:48:17.815Z,12.28
2019-03-27T14:50:46.882Z,6.92
2019-03-27T14:53:15.974Z,12.75
2019-03-27T14:55:45.075Z,8.18
2019-03-27T14:58:14.398Z,9.95
2019-03-27T15:00:43.471Z,6.12
2019-03-27T15:03:12.798Z,10.43
2019-03-27T15:05:41.886Z,10.65
2019-03-27T15:08:11.235Z,9.70
2019-03-27T15:10:40.711Z,8.70
2019-03-27T15:13:09.998Z,13.05
2019-03-27T15:15:39.355Z,19.85
2019-03-27T15:18:08.718Z,11.53
2019-03-27T15:20:37.770Z,13.75
2019-03-27T15:23:07.422Z,13.45
2019-03-27T15:25:36.470Z,15.85
2019-03-27T15:28:05.830Z,16.37
2019-03-27T15:30:35.362Z,13.78
2019-03-27T15:33:04.495Z,12.75
2019-03-27T15:35:51.987Z,14.23
2019-03-27T15:38:21.150Z,13.70
2019-03-27T15:40:50.435Z,15.65
2019-03-27T15:43:19.838Z,12.98
2019-03-27T15:45:49.296Z,18.80
2019-03-27T15:48:18.698Z,16.37
2019-03-27T15:50:55.530Z,16.42
2019-03-27T15:53:18.862Z,10.18
2019-03-27T15:55:48.292Z,14.33
2019-03-27T15:58:17.366Z,17.05
2019-03-27T16:00:46.526Z,13.80
2019-03-27T16:03:15.991Z,11.35
2019-03-27T16:05:45.099Z,15.72
2019-03-27T16:08:14.524Z,22.40
2019-03-27T16:10:44.035Z,18.55
2019-03-27T16:13:13.182Z,17.48
2019-03-27T16:15:42.335Z,13.72
2019-03-27T16:18:11.466Z,15.45
2019-03-27T16:20:41.064Z,20.77
2019-03-27T16:23:10.167Z,21.60
2019-03-27T16:25:39.250Z,17.23
2019-03-27T16:28:08.364Z,19.40
2019-03-27T16:30:37.518Z,14.35
2019-03-27T16:33:07.051Z,16.52
2019-03-27T16:35:36.162Z,11.22
2019-03-27T16:38:05.254Z,16.82
2019-03-27T16:40:44.458Z,13.93
2019-03-27T16:43:13.971Z,16.82
2019-03-27T16:45:43.155Z,16.67
2019-03-27T16:48:12.321Z,16.85
2019-03-27T16:50:41.522Z,13.20
2019-03-27T16:53:10.863Z,21.05
2019-03-27T16:55:40.033Z,18.92
2019-03-27T16:58:09.198Z,16.27
2019-03-27T17:00:38.275Z,14.25
2019-03-27T17:03:07.636Z,14.58
2019-03-27T17:05:37.102Z,13.72
2019-03-27T17:08:06.206Z,13.00
2019-03-27T17:10:35.279Z,17.12
2019-03-27T17:13:04.851Z,11.00
2019-03-27T17:15:33.974Z,14.45
2019-03-27T17:18:03.410Z,17.98
2019-03-27T17:20:32.475Z,11.63
2019-03-27T17:23:01.585Z,13.30
2019-03-27T17:25:30.658Z,12.63
2019-03-27T17:27:59.772Z,13.22
2019-03-27T17:30:31.846Z,9.38
2019-03-27T17:32:59.711Z,10.68
2019-03-27T17:35:28.762Z,12.85
2019-03-27T17:37:57.902Z,8.63
2019-03-27T17:40:27.315Z,11.93
2019-03-27T17:42:56.547Z,10.20
2019-03-27T17:45:25.686Z,12.90
2019-03-27T17:47:55.083Z,13.25
2019-03-27T17:50:24.186Z,10.03
2019-03-27T17:52:53.352Z,12.13
2019-03-27T17:55:22.478Z,11.08
2019-03-27T17:57:51.920Z,13.43
2019-03-27T18:00:43.938Z,9.00
2019-03-27T18:03:13.298Z,12.65
2019-03-27T18:05:42.806Z,10.28
2019-03-27T18:08:11.935Z,14.30
2019-03-27T18:10:41.690Z,15.40
2019-03-27T18:13:11.611Z,11.65
2019-03-27T18:15:41.284Z,14.00
2019-03-27T18:18:10.366Z,13.35
2019-03-27T18:20:39.759Z,10.58
2019-03-27T18:23:09.425Z,13.90
2019-03-27T18:25:38.562Z,7.12
2019-03-27T18:28:07.676Z,10.88
2019-03-27T18:30:37.067Z,14.07
2019-03-27T18:33:06.166Z,12.43
2019-03-27T18:35:35.214Z,11.83
2019-03-27T18:38:04.986Z,6.12
2019-03-27T18:40:34.058Z,8.58
2019-03-27T18:43:03.538Z,10.05
2019-03-27T18:45:33.276Z,18.73
2019-03-27T18:48:02.723Z,11.83
2019-03-27T18:50:31.783Z,13.93
2019-03-27T18:53:00.874Z,10.43
2019-03-27T18:55:30.603Z,9.23
2019-03-27T18:58:00.748Z,16.32
2019-03-27T19:00:30.970Z,11.33
2019-03-27T19:03:00.560Z,13.00
2019-03-27T19:05:29.910Z,12.18
2019-03-27T19:07:59.035Z,14.30
2019-03-27T19:10:28.161Z,8.20
2019-03-27T19:13:16.731Z,13.70
2019-03-27T19:16:04.834Z,11.10
2019-03-27T19:18:53.179Z,12.07
2019-03-27T19:21:41.751Z,12.37
2019-03-27T19:24:29.868Z,11.78
2019-03-27T19:27:17.967Z,16.40
2019-03-27T19:30:06.255Z,13.53
2019-03-27T19:32:54.594Z,13.18
2019-03-27T19:35:42.777Z,10.78
2019-03-27T19:38:30.963Z,14.35
2019-03-27T19:41:19.067Z,9.85
2019-03-27T19:44:06.091Z,13.08
2019-03-27T19:46:54.200Z,14.45
2019-03-27T19:49:35.538Z,16.90
2019-03-27T19:52:16.496Z,14.43
2019-03-27T19:54:57.134Z,13.18
2019-03-27T20:00:23.119Z,14.00
2019-03-27T20:11:22.243Z,17.20
2019-03-27T20:14:02.574Z,12.33
2019-03-27T20:25:08.395Z,10.08
2019-03-27T20:27:51.190Z,11.40
2019-03-27T20:30:31.590Z,18.45
2019-03-27T20:33:12.155Z,15.10
2019-03-27T20:35:53.062Z,16.57
2019-03-27T20:38:33.710Z,16.37
2019-03-27T20:41:14.635Z,13.60
2019-03-27T20:43:55.339Z,10.38
2019-03-27T20:46:36.006Z,14.13
2019-03-27T20:49:16.331Z,12.63
2019-03-27T20:51:57.061Z,18.73
2019-03-27T20:54:37.887Z,19.62
2019-03-27T20:57:18.570Z,18.37
2019-03-27T20:59:59.571Z,16.00
2019-03-27T21:02:40.043Z,18.23
2019-03-27T21:05:20.464Z,14.55
2019-03-27T21:08:00.991Z,18.80
2019-03-27T21:10:41.815Z,14.75
2019-03-27T21:13:22.676Z,22.87
2019-03-27T21:16:03.066Z,24.57
2019-03-27T21:18:43.523Z,17.17
2019-03-27T21:21:24.219Z,20.85
2019-03-27T21:24:04.799Z,15.65
2019-03-27T21:26:45.295Z,14.33
2019-03-27T21:29:26.144Z,12.58
2019-03-27T21:32:06.866Z,14.07
2019-03-27T21:34:47.399Z,14.15
2019-03-27T21:37:27.823Z,15.40
2019-03-27T21:40:08.482Z,14.58
2019-03-27T21:42:49.127Z,16.93
2019-03-27T21:45:32.260Z,20.72
2019-03-27T21:48:12.584Z,24.82
2019-03-27T21:50:53.250Z,23.92
2019-03-27T21:53:33.716Z,25.25
2019-03-27T21:56:14.275Z,26.60
2019-03-27T21:58:54.874Z,21.10
2019-03-27T22:01:35.435Z,22.20
2019-03-27T22:04:16.434Z,13.68
2019-03-27T22:06:57.194Z,16.93
2019-03-27T22:09:37.794Z,16.45
2019-03-27T22:12:18.346Z,17.95
2019-03-27T22:14:58.827Z,14.80
2019-03-27T22:17:40.137Z,19.55
2019-03-27T22:20:21.242Z,25.70
2019-03-27T22:23:01.672Z,23.30
2019-03-27T22:25:42.439Z,17.62
2019-03-27T22:31:04.850Z,19.27
2019-03-27T22:33:45.478Z,17.52
2019-03-27T22:36:26.459Z,18.48
2019-03-27T22:39:06.775Z,22.82
2019-03-27T22:41:47.488Z,22.58
2019-03-27T22:44:28.191Z,29.55
2019-03-27T22:47:09.374Z,18.05
2019-03-27T22:49:49.705Z,24.15
2019-03-27T22:52:30.200Z,19.23
2019-03-27T22:55:09.414Z,18.57
2019-03-27T22:57:57.527Z,20.25
2019-03-27T23:01:04.741Z,29.45
2019-03-27T23:03:53.076Z,20.85
2019-03-27T23:06:41.185Z,28.73
2019-03-27T23:09:29.526Z,17.80
2019-03-27T23:12:17.635Z,19.10
2019-03-27T23:15:06.107Z,18.67
2019-03-27T23:17:54.211Z,19.73
2019-03-27T23:20:42.561Z,14.87
2019-03-27T23:23:30.659Z,17.48
2019-03-27T23:26:18.778Z,15.95
2019-03-27T23:29:06.882Z,17.73
2019-03-27T23:31:54.989Z,11.93
2019-03-27T23:34:43.327Z,16.25
2019-03-27T23:40:24.216Z,15.58
2019-03-27T23:46:05.095Z,14.80
